| time (UTC) | temp F | wind direction | speed MPH | gust MPH | rain 1hr in | rain 24hr in | rain mn in | humidity % | barometer mb |
| 20260904193303 | 91 | 139 | 2.0 | 2.0 | 0.00 | 0.00 | 0.00 | 69 | 1017.9 |
| 20260904192758 | 91 | 140 | 2.0 | 2.0 | 0.00 | 0.00 | 0.00 | 69 | 1018.0 |
| 20260904192253 | 91 | 152 | 0.0 | 0.0 | 0.00 | 0.00 | 0.00 | 73 | 1017.9 |
| 20260904191750 | 91 | 141 | 1.0 | 1.0 | 0.00 | 0.00 | 0.00 | 71 | 1018.0 |
| 20260904191246 | 91 | 171 | 2.0 | 2.0 | 0.00 | 0.00 | 0.00 | 72 | 1018.0 |
| 20260904190742 | 93 | 190 | 2.0 | 2.0 | 0.00 | 0.00 | 0.00 | 69 | 1018.0 |
| 20260904190238 | 93 | 287 | 3.0 | 3.0 | 0.00 | 0.00 | 0.00 | 69 | 1018.0 |
| 20260904185734 | 91 | 102 | 1.0 | 1.0 | 0.00 | 0.00 | 0.00 | 69 | 1018.0 |
| 20260904185234 | 91 | 138 | 3.0 | 3.0 | 0.00 | 0.00 | 0.00 | 73 | 1018.0 |
| 20260904184732 | 90 | 184 | 2.0 | 2.0 | 0.00 | 0.00 | 0.00 | 74 | 1018.2 |
| 20260904184229 | 89 | 119 | 3.0 | 3.0 | 0.00 | 0.00 | 0.00 | 77 | 1018.3 |
| 20260904183724 | 88 | 145 | 2.0 | 2.0 | 0.00 | 0.00 | 0.00 | 78 | 1018.5 |
| 20260904183219 | 88 | 86 | 3.0 | 3.0 | 0.00 | 0.00 | 0.00 | 77 | 1018.6 |
| 20260904182714 | 89 | 107 | 2.0 | 2.0 | 0.00 | 0.00 | 0.00 | 77 | 1018.9 |
| 20260904182209 | 90 | 86 | 0.0 | 0.0 | 0.00 | 0.00 | 0.00 | 74 | 1018.8 |
| 20260904181705 | 91 | 205 | 1.0 | 1.0 | 0.00 | 0.00 | 0.00 | 71 | 1018.8 |
| 20260904181204 | 91 | 138 | 0.0 | 0.0 | 0.00 | 0.00 | 0.00 | 73 | 1018.9 |
| 20260904180701 | 91 | 167 | 0.0 | 0.0 | 0.00 | 0.00 | 0.00 | 74 | 1018.6 |
| 20260904180155 | 92 | 148 | 1.0 | 1.0 | 0.00 | 0.00 | 0.00 | 72 | 1018.8 |
| 20260904175654 | 91 | 184 | 0.0 | 1.0 | 0.00 | 0.00 | 0.00 | 75 | 1018.6 |
| 20260904175153 | 90 | 142 | 2.0 | 2.0 | 0.00 | 0.00 | 0.00 | 75 | 1018.8 |
| 20260904174647 | 91 | 80 | 4.0 | 6.0 | 0.00 | 0.00 | 0.00 | 75 | 1018.9 |
| 20260904174144 | 91 | 142 | 2.0 | 2.0 | 0.00 | 0.00 | 0.00 | 74 | 1018.9 |
| 20260904173639 | 91 | 75 | 1.0 | 1.0 | 0.00 | 0.00 | 0.00 | 77 | 1019.0 |
| 20260904173134 | 89 | 98 | 1.0 | 2.0 | 0.00 | 0.00 | 0.00 | 79 | 1019.1 |
| 20260904172630 | 88 | 150 | 0.0 | 0.0 | 0.00 | 0.00 | 0.00 | 83 | 1019.2 |
| 20260904172124 | 88 | 159 | 0.0 | 0.0 | 0.00 | 0.00 | 0.00 | 81 | 1019.2 |
| 20260904171619 | 89 | 170 | 0.0 | 1.0 | 0.00 | 0.00 | 0.00 | 81 | 1019.5 |
| 20260904171115 | 90 | 82 | 1.0 | 1.0 | 0.00 | 0.00 | 0.00 | 80 | 1019.5 |
| 20260904170611 | 88 | 142 | 1.0 | 1.0 | 0.00 | 0.00 | 0.00 | 83 | 1019.6 |
| 20260904170107 | 87 | 179 | 0.0 | 0.0 | 0.00 | 0.00 | 0.00 | 85 | 1019.7 |
| 20260904165605 | 87 | 92 | 3.0 | 3.0 | 0.00 | 0.00 | 0.00 | 83 | 1019.7 |
| 20260904165104 | 89 | 119 | 2.0 | 3.0 | 0.00 | 0.00 | 0.00 | 79 | 1019.6 |
| 20260904164559 | 90 | 139 | 1.0 | 1.0 | 0.00 | 0.00 | 0.00 | 72 | 1019.5 |
| 20260904164054 | 89 | 167 | 1.0 | 1.0 | 0.00 | 0.00 | 0.00 | 73 | 1019.5 |
| 20260904163549 | 89 | 157 | 1.0 | 1.0 | 0.00 | 0.00 | 0.00 | 75 | 1019.5 |
| 20260904163044 | 89 | 161 | 2.0 | 2.0 | 0.00 | 0.00 | 0.00 | 74 | 1019.7 |
| 20260904162538 | 91 | 294 | 3.0 | 3.0 | 0.00 | 0.00 | 0.00 | 74 | 1019.4 |
| 20260904162034 | 91 | 210 | 1.0 | 1.0 | 0.00 | 0.00 | 0.00 | 74 | 1019.5 |
| 20260904161529 | 91 | 165 | 1.0 | 2.0 | 0.00 | 0.00 | 0.00 | 74 | 1019.6 |
| 20260904161025 | 90 | 151 | 0.0 | 0.0 | 0.00 | 0.00 | 0.00 | 77 | 1019.6 |
| 20260904160519 | 89 | 100 | 3.0 | 5.0 | 0.00 | 0.00 | 0.00 | 78 | 1019.4 |
| 20260904160015 | 89 | 143 | 2.0 | 2.0 | 0.00 | 0.00 | 0.00 | 80 | 1019.8 |
| 20260904155509 | 89 | 154 | 0.0 | 1.0 | 0.00 | 0.00 | 0.00 | 79 | 1019.6 |
| 20260904155009 | 89 | 109 | 3.0 | 3.0 | 0.00 | 0.00 | 0.00 | 80 | 1019.5 |
| 20260904154503 | 88 | 176 | 1.0 | 1.0 | 0.00 | 0.00 | 0.00 | 81 | 1019.4 |
| 20260904153957 | 88 | 115 | 3.0 | 3.0 | 0.00 | 0.00 | 0.00 | 82 | 1019.2 |
| 20260904153452 | 88 | 165 | 2.0 | 3.0 | 0.00 | 0.00 | 0.00 | 83 | 1019.4 |
| 20260904152949 | 87 | 190 | 1.0 | 1.0 | 0.00 | 0.00 | 0.00 | 86 | 1019.5 |
| 20260904152444 | 86 | 196 | 1.0 | 1.0 | 0.00 | 0.00 | 0.00 | 87 | 1019.2 |
| 20260904151944 | 86 | 184 | 2.0 | 2.0 | 0.00 | 0.00 | 0.00 | 88 | 1019.4 |
| 20260904151438 | 85 | 133 | 2.0 | 3.0 | 0.00 | 0.00 | 0.00 | 88 | 1019.5 |
| 20260904150933 | 85 | 186 | 1.0 | 2.0 | 0.00 | 0.00 | 0.00 | 90 | 1019.4 |
| 20260904150429 | 85 | 167 | 4.0 | 5.0 | 0.00 | 0.00 | 0.00 | 90 | 1019.2 |
| 20260904145926 | 84 | 148 | 1.0 | 2.0 | 0.00 | 0.00 | 0.00 | 93 | 1019.4 |
| 20260904145422 | 84 | 174 | 0.0 | 1.0 | 0.00 | 0.00 | 0.00 | 94 | 1019.2 |
| 20260904144917 | 83 | 165 | 4.0 | 5.0 | 0.00 | 0.00 | 0.00 | 94 | 1019.5 |
| 20260904144413 | 82 | 154 | 2.0 | 2.0 | 0.00 | 0.00 | 0.00 | 96 | 1019.2 |
| 20260904143909 | 82 | 184 | 1.0 | 1.0 | 0.00 | 0.00 | 0.00 | 98 | 1019.6 |
| 20260904143405 | 81 | 168 | 3.0 | 3.0 | 0.00 | 0.00 | 0.00 | 99 | 1019.5 |
| 20260904142901 | 80 | 177 | 2.0 | 2.0 | 0.00 | 0.00 | 0.00 | 99 | 1019.6 |
| 20260904142357 | 80 | 188 | 2.0 | 2.0 | 0.00 | 0.00 | 0.00 | 99 | 1019.1 |
| 20260904141851 | 79 | 74 | 2.0 | 2.0 | 0.00 | 0.00 | 0.00 | 99 | 1019.0 |
| 20260904141346 | 79 | 142 | 2.0 | 2.0 | 0.00 | 0.00 | 0.00 | 99 | 1019.1 |
| 20260904140842 | 78 | 146 | 1.0 | 2.0 | 0.00 | 0.00 | 0.00 | 99 | 1019.4 |
| 20260904140338 | 78 | 100 | 2.0 | 3.0 | 0.00 | 0.00 | 0.00 | 99 | 1019.0 |
| 20260904135836 | 78 | 101 | 2.0 | 2.0 | 0.00 | 0.00 | 0.00 | 99 | 1019.2 |
| 20260904135332 | 78 | 160 | 1.0 | 1.0 | 0.00 | 0.00 | 0.00 | 99 | 1019.0 |
| 20260904134828 | 78 | 85 | 2.0 | 2.0 | 0.00 | 0.00 | 0.00 | 99 | 1019.0 |
| 20260904134327 | 78 | 145 | 1.0 | 2.0 | 0.00 | 0.00 | 0.00 | 99 | 1018.9 |
| 20260904133821 | 77 | 137 | 1.0 | 2.0 | 0.00 | 0.00 | 0.00 | 99 | 1018.9 |
| 20260904133317 | 77 | 154 | 2.0 | 2.0 | 0.00 | 0.00 | 0.00 | 99 | 1018.7 |
| 20260904132818 | 77 | 85 | 1.0 | 2.0 | 0.00 | 0.00 | 0.00 | 99 | 1018.8 |
| 20260904132313 | 77 | 117 | 2.0 | 2.0 | 0.00 | 0.00 | 0.00 | 99 | 1018.9 |
| 20260904131812 | 77 | 148 | 2.0 | 2.0 | 0.00 | 0.00 | 0.00 | 99 | 1018.9 |
| 20260904131308 | 77 | 113 | 2.0 | 2.0 | 0.00 | 0.00 | 0.00 | 99 | 1018.9 |
| 20260904130807 | 77 | 106 | 2.0 | 2.0 | 0.00 | 0.00 | 0.00 | 99 | 1018.9 |
| 20260904130307 | 77 | 100 | 1.0 | 1.0 | 0.00 | 0.00 | 0.00 | 99 | 1018.5 |
| 20260904125803 | 77 | 107 | 2.0 | 2.0 | 0.00 | 0.00 | 0.00 | 99 | 1018.8 |
| 20260904125259 | 78 | 112 | 1.0 | 2.0 | 0.00 | 0.00 | 0.00 | 99 | 1018.5 |
| 20260904124758 | 77 | 156 | 0.0 | 0.0 | 0.00 | 0.00 | 0.00 | 99 | 1018.4 |
| 20260904124255 | 77 | 155 | 0.0 | 1.0 | 0.00 | 0.00 | 0.00 | 99 | 1018.4 |
| 20260904123750 | 77 | 167 | 0.0 | 0.0 | 0.00 | 0.00 | 0.00 | 99 | 1018.4 |
| 20260904123245 | 77 | 167 | 0.0 | 0.0 | 0.00 | 0.00 | 0.00 | 99 | 1018.2 |
| 20260904122739 | 76 | 168 | 0.0 | 0.0 | 0.00 | 0.00 | 0.00 | 99 | 1018.0 |
| 20260904122234 | 76 | 167 | 0.0 | 0.0 | 0.00 | 0.00 | 0.00 | 99 | 1018.2 |
| 20260904121730 | 76 | 167 | 0.0 | 0.0 | 0.00 | 0.00 | 0.00 | 99 | 1017.9 |
| 20260904121225 | 75 | 167 | 0.0 | 0.0 | 0.00 | 0.00 | 0.00 | 99 | 1018.2 |
| 20260904120721 | 75 | 167 | 0.0 | 0.0 | 0.00 | 0.00 | 0.00 | 99 | 1017.9 |
| 20260904120212 | 75 | 167 | 0.0 | 0.0 | 0.00 | 0.00 | 0.00 | 99 | 1018.0 |
| 20260904115706 | 75 | 167 | 0.0 | 0.0 | 0.00 | 0.00 | 0.00 | 99 | 1017.9 |
| 20260904115201 | 75 | 167 | 0.0 | 0.0 | 0.00 | 0.00 | 0.00 | 99 | 1017.9 |
| 20260904114700 | 75 | 167 | 0.0 | 0.0 | 0.00 | 0.00 | 0.00 | 99 | 1017.9 |
| 20260904114155 | 75 | 167 | 0.0 | 0.0 | 0.00 | 0.00 | 0.00 | 99 | 1017.9 |
| 20260904113650 | 75 | 167 | 0.0 | 0.0 | 0.00 | 0.00 | 0.00 | 99 | 1018.3 |
| 20260904113149 | 75 | 167 | 0.0 | 0.0 | 0.00 | 0.00 | 0.00 | 99 | 1018.1 |
| 20260904112645 | 75 | 167 | 0.0 | 0.0 | 0.00 | 0.00 | 0.00 | 99 | 1018.1 |
| 20260904112141 | 75 | 167 | 0.0 | 0.0 | 0.00 | 0.00 | 0.00 | 99 | 1017.8 |
| 20260904111636 | 75 | 167 | 0.0 | 0.0 | 0.00 | 0.00 | 0.00 | 99 | 1017.8 |
| 20260904111131 | 75 | 157 | 0.0 | 0.0 | 0.00 | 0.00 | 0.00 | 99 | 1017.7 |
| 20260904110626 | 75 | 157 | 0.0 | 0.0 | 0.00 | 0.00 | 0.00 | 99 | 1017.9 |
| 20260904110121 | 75 | 157 | 0.0 | 0.0 | 0.00 | 0.00 | 0.00 | 99 | 1017.8 |
| 20260904105621 | 75 | 157 | 0.0 | 0.0 | 0.00 | 0.00 | 0.00 | 99 | 1017.8 |
| 20260904105116 | 75 | 157 | 0.0 | 0.0 | 0.00 | 0.00 | 0.00 | 99 | 1017.7 |
| 20260904104611 | 75 | 157 | 0.0 | 0.0 | 0.00 | 0.00 | 0.00 | 99 | 1017.7 |
| 20260904104107 | 75 | 157 | 0.0 | 0.0 | 0.00 | 0.00 | 0.00 | 99 | 1017.7 |
| 20260904103603 | 75 | 157 | 0.0 | 0.0 | 0.00 | 0.00 | 0.00 | 99 | 1017.7 |
| 20260904103058 | 75 | 151 | 0.0 | 0.0 | 0.00 | 0.00 | 0.00 | 99 | 1017.5 |
| 20260904102554 | 75 | 164 | 0.0 | 1.0 | 0.00 | 0.00 | 0.00 | 99 | 1017.5 |
| 20260904102049 | 75 | 166 | 0.0 | 0.0 | 0.00 | 0.00 | 0.00 | 99 | 1017.6 |
| 20260904101546 | 75 | 166 | 0.0 | 0.0 | 0.00 | 0.00 | 0.00 | 99 | 1017.6 |
| 20260904101041 | 76 | 166 | 0.0 | 0.0 | 0.00 | 0.00 | 0.00 | 99 | 1017.5 |
| 20260904100537 | 76 | 166 | 0.0 | 0.0 | 0.00 | 0.00 | 0.00 | 99 | 1017.4 |
| 20260904100031 | 76 | 166 | 0.0 | 0.0 | 0.00 | 0.00 | 0.00 | 99 | 1017.5 |
| 20260904095526 | 76 | 166 | 0.0 | 0.0 | 0.00 | 0.00 | 0.00 | 99 | 1017.5 |
| 20260904095021 | 76 | 166 | 0.0 | 0.0 | 0.00 | 0.00 | 0.00 | 99 | 1017.4 |
| 20260904094515 | 76 | 166 | 0.0 | 0.0 | 0.00 | 0.00 | 0.00 | 99 | 1017.6 |
| 20260904094011 | 76 | 166 | 0.0 | 0.0 | 0.00 | 0.00 | 0.00 | 99 | 1017.3 |
| 20260904093508 | 76 | 166 | 0.0 | 0.0 | 0.00 | 0.00 | 0.00 | 99 | 1017.3 |
| 20260904093002 | 76 | 166 | 0.0 | 0.0 | 0.00 | 0.00 | 0.00 | 99 | 1017.2 |
| 20260904092458 | 76 | 166 | 0.0 | 0.0 | 0.00 | 0.00 | 0.00 | 99 | 1017.3 |
| 20260904091954 | 76 | 166 | 0.0 | 0.0 | 0.00 | 0.00 | 0.00 | 99 | 1017.1 |
| 20260904091450 | 76 | 166 | 0.0 | 0.0 | 0.00 | 0.00 | 0.00 | 99 | 1017.3 |
| 20260904090944 | 76 | 166 | 0.0 | 0.0 | 0.00 | 0.00 | 0.00 | 99 | 1017.2 |
| 20260904090440 | 76 | 166 | 0.0 | 0.0 | 0.00 | 0.00 | 0.00 | 99 | 1017.4 |
| 20260904085935 | 76 | 166 | 0.0 | 0.0 | 0.00 | 0.00 | 0.00 | 99 | 1017.3 |
| 20260904085430 | 76 | 166 | 0.0 | 1.0 | 0.00 | 0.00 | 0.00 | 99 | 1017.5 |
| 20260904084925 | 76 | 167 | 0.0 | 0.0 | 0.00 | 0.00 | 0.00 | 99 | 1017.3 |
| 20260904084422 | 76 | 165 | 1.0 | 1.0 | 0.00 | 0.00 | 0.00 | 99 | 1017.3 |
| 20260904083916 | 76 | 168 | 0.0 | 0.0 | 0.00 | 0.00 | 0.00 | 99 | 1017.4 |
| 20260904083413 | 77 | 168 | 0.0 | 0.0 | 0.00 | 0.00 | 0.00 | 99 | 1017.4 |
| 20260904082903 | 77 | 168 | 0.0 | 0.0 | 0.00 | 0.00 | 0.00 | 99 | 1017.4 |
| 20260904082403 | 77 | 172 | 0.0 | 0.0 | 0.00 | 0.00 | 0.00 | 99 | 1017.3 |
| 20260904081858 | 77 | 157 | 0.0 | 0.0 | 0.00 | 0.00 | 0.00 | 99 | 1017.6 |
| 20260904081353 | 77 | 152 | 0.0 | 1.0 | 0.00 | 0.00 | 0.00 | 99 | 1017.4 |
| 20260904080849 | 77 | 162 | 0.0 | 0.0 | 0.00 | 0.00 | 0.00 | 99 | 1017.5 |
| 20260904080344 | 77 | 181 | 0.0 | 0.0 | 0.00 | 0.00 | 0.00 | 99 | 1017.4 |
| 20260904075841 | 77 | 182 | 0.0 | 0.0 | 0.00 | 0.00 | 0.00 | 99 | 1017.6 |
| 20260904075335 | 77 | 182 | 0.0 | 0.0 | 0.00 | 0.00 | 0.00 | 99 | 1017.3 |
| 20260904074829 | 77 | 182 | 0.0 | 0.0 | 0.00 | 0.00 | 0.00 | 99 | 1017.4 |
| 20260904074324 | 77 | 182 | 0.0 | 0.0 | 0.00 | 0.00 | 0.00 | 99 | 1017.1 |
| 20260904073819 | 77 | 181 | 0.0 | 0.0 | 0.00 | 0.00 | 0.00 | 99 | 1017.2 |
| 20260904073315 | 77 | 182 | 0.0 | 0.0 | 0.00 | 0.00 | 0.00 | 99 | 1017.0 |
| 20260904072811 | 77 | 182 | 0.0 | 0.0 | 0.00 | 0.00 | 0.00 | 99 | 1017.2 |
| 20260904072310 | 77 | 182 | 0.0 | 0.0 | 0.00 | 0.00 | 0.00 | 99 | 1017.3 |
| 20260904071806 | 77 | 189 | 0.0 | 0.0 | 0.00 | 0.00 | 0.00 | 99 | 1017.2 |
| 20260904071300 | 78 | 171 | 1.0 | 1.0 | 0.00 | 0.00 | 0.00 | 99 | 1017.1 |
| 20260904070755 | 77 | 154 | 0.0 | 0.0 | 0.00 | 0.00 | 0.00 | 99 | 1017.3 |
| 20260904070254 | 77 | 188 | 0.0 | 1.0 | 0.00 | 0.00 | 0.00 | 99 | 1017.3 |
| 20260904065749 | 77 | 164 | 0.0 | 0.0 | 0.00 | 0.00 | 0.00 | 99 | 1017.1 |
| 20260904065246 | 77 | 202 | 0.0 | 0.0 | 0.00 | 0.00 | 0.00 | 99 | 1017.4 |
| 20260904064745 | 77 | 202 | 0.0 | 0.0 | 0.00 | 0.00 | 0.00 | 99 | 1017.4 |
| 20260904064241 | 77 | 193 | 0.0 | 0.0 | 0.00 | 0.00 | 0.00 | 99 | 1017.4 |
| 20260904063737 | 77 | 192 | 0.0 | 0.0 | 0.00 | 0.00 | 0.00 | 99 | 1017.3 |
| 20260904063233 | 77 | 175 | 0.0 | 0.0 | 0.00 | 0.00 | 0.00 | 99 | 1017.4 |
| 20260904062728 | 77 | 175 | 0.0 | 0.0 | 0.00 | 0.00 | 0.00 | 99 | 1017.5 |
| 20260904062224 | 77 | 180 | 0.0 | 0.0 | 0.00 | 0.00 | 0.00 | 99 | 1017.1 |
| 20260904061720 | 77 | 204 | 0.0 | 0.0 | 0.00 | 0.00 | 0.00 | 99 | 1017.3 |
| 20260904061216 | 77 | 170 | 0.0 | 0.0 | 0.00 | 0.00 | 0.00 | 99 | 1017.4 |
| 20260904060713 | 77 | 181 | 0.0 | 0.0 | 0.00 | 0.00 | 0.00 | 99 | 1017.3 |
| 20260904060208 | 77 | 204 | 0.0 | 0.0 | 0.00 | 0.00 | 0.00 | 99 | 1017.4 |
| 20260904055703 | 77 | 184 | 0.0 | 0.0 | 0.00 | 0.16 | 0.16 | 99 | 1017.3 |
| 20260904055158 | 77 | 185 | 0.0 | 0.0 | 0.00 | 0.16 | 0.16 | 99 | 1017.2 |
| 20260904054654 | 77 | 184 | 0.0 | 0.0 | 0.00 | 0.16 | 0.16 | 99 | 1017.4 |
| 20260904054149 | 77 | 184 | 0.0 | 0.0 | 0.00 | 0.16 | 0.16 | 99 | 1017.5 |
| 20260904053643 | 77 | 184 | 0.0 | 0.0 | 0.00 | 0.16 | 0.16 | 99 | 1017.3 |
| 20260904053138 | 77 | 184 | 0.0 | 0.0 | 0.00 | 0.16 | 0.16 | 99 | 1017.6 |
| 20260904052635 | 77 | 184 | 0.0 | 0.0 | 0.00 | 0.16 | 0.16 | 99 | 1017.5 |
| 20260904052130 | 77 | 184 | 0.0 | 0.0 | 0.00 | 0.16 | 0.16 | 99 | 1017.5 |
| 20260904051626 | 77 | 183 | 0.0 | 0.0 | 0.00 | 0.16 | 0.16 | 99 | 1017.6 |
| 20260904051121 | 77 | 183 | 0.0 | 1.0 | 0.00 | 0.16 | 0.16 | 99 | 1017.4 |
| 20260904050617 | 77 | 183 | 0.0 | 0.0 | 0.00 | 0.16 | 0.16 | 99 | 1017.4 |
| 20260904050113 | 77 | 183 | 0.0 | 0.0 | 0.00 | 0.16 | 0.16 | 99 | 1017.3 |
| 20260904045608 | 77 | 183 | 0.0 | 0.0 | 0.00 | 0.16 | 0.16 | 99 | 1017.5 |
| 20260904045102 | 77 | 183 | 0.0 | 0.0 | 0.00 | 0.16 | 0.16 | 99 | 1017.7 |
| 20260904044558 | 77 | 183 | 0.0 | 0.0 | 0.00 | 0.16 | 0.16 | 99 | 1017.5 |
| 20260904044054 | 77 | 183 | 0.0 | 0.0 | 0.00 | 0.16 | 0.16 | 99 | 1017.5 |
| 20260904043550 | 77 | 184 | 0.0 | 0.0 | 0.00 | 0.16 | 0.16 | 99 | 1017.6 |
| 20260904043046 | 77 | 184 | 0.0 | 0.0 | 0.00 | 0.16 | 0.16 | 99 | 1017.3 |
| 20260904042542 | 78 | 184 | 0.0 | 0.0 | 0.00 | 0.16 | 0.16 | 99 | 1017.5 |
| 20260904042037 | 78 | 184 | 0.0 | 0.0 | 0.00 | 0.16 | 0.16 | 99 | 1017.5 |
| 20260904041533 | 78 | 182 | 0.0 | 0.0 | 0.00 | 0.16 | 0.16 | 99 | 1017.5 |
| 20260904041029 | 78 | 182 | 0.0 | 0.0 | 0.00 | 0.16 | 0.16 | 99 | 1017.5 |
| 20260904040528 | 78 | 162 | 0.0 | 0.0 | 0.00 | 0.16 | 0.16 | 99 | 1017.3 |
| 20260904040025 | 78 | 163 | 0.0 | 0.0 | 0.00 | 0.16 | 0.16 | 99 | 1017.3 |
| 20260904035520 | 78 | 129 | 1.0 | 1.0 | 0.00 | 0.16 | 0.16 | 99 | 1017.6 |
| 20260904035019 | 78 | 181 | 0.0 | 0.0 | 0.00 | 0.16 | 0.16 | 99 | 1017.5 |
| 20260904034514 | 78 | 175 | 1.0 | 1.0 | 0.00 | 0.16 | 0.16 | 99 | 1017.5 |
| 20260904034010 | 78 | 194 | 0.0 | 0.0 | 0.00 | 0.16 | 0.16 | 99 | 1017.5 |
| 20260904033506 | 78 | 170 | 0.0 | 0.0 | 0.00 | 0.16 | 0.16 | 99 | 1017.3 |
| 20260904033003 | 78 | 184 | 1.0 | 1.0 | 0.00 | 0.16 | 0.16 | 99 | 1017.3 |
| 20260904032457 | 78 | 173 | 1.0 | 1.0 | 0.00 | 0.16 | 0.16 | 99 | 1017.3 |
| 20260904031956 | 78 | 168 | 1.0 | 1.0 | 0.00 | 0.16 | 0.16 | 99 | 1017.3 |
| 20260904031452 | 78 | 177 | 0.0 | 1.0 | 0.00 | 0.16 | 0.16 | 99 | 1017.3 |
| 20260904030948 | 78 | 167 | 1.0 | 1.0 | 0.00 | 0.16 | 0.16 | 99 | 1017.2 |
| 20260904030443 | 78 | 199 | 1.0 | 1.0 | 0.00 | 0.16 | 0.16 | 99 | 1017.2 |
| 20260904025937 | 78 | 194 | 0.0 | 0.0 | 0.00 | 0.16 | 0.16 | 99 | 1017.4 |
| 20260904025434 | 78 | 195 | 0.0 | 0.0 | 0.00 | 0.16 | 0.16 | 99 | 1017.3 |
| 20260904024928 | 77 | 195 | 0.0 | 1.0 | 0.00 | 0.16 | 0.16 | 99 | 1017.2 |
| 20260904024424 | 77 | 193 | 0.0 | 0.0 | 0.00 | 0.16 | 0.16 | 99 | 1017.0 |
| 20260904023919 | 77 | 157 | 0.0 | 0.0 | 0.00 | 0.16 | 0.16 | 99 | 1017.3 |
| 20260904023416 | 77 | 136 | 1.0 | 2.0 | 0.00 | 0.16 | 0.16 | 99 | 1017.1 |
| 20260904022915 | 77 | 161 | 0.0 | 0.0 | 0.00 | 0.16 | 0.16 | 99 | 1017.4 |
| 20260904022412 | 77 | 178 | 0.0 | 0.0 | 0.00 | 0.16 | 0.16 | 99 | 1017.0 |
| 20260904021907 | 77 | 178 | 0.0 | 0.0 | 0.00 | 0.16 | 0.16 | 99 | 1017.1 |
| 20260904021402 | 77 | 179 | 0.0 | 0.0 | 0.00 | 0.16 | 0.16 | 99 | 1017.0 |
| 20260904020852 | 77 | 178 | 0.0 | 0.0 | 0.00 | 0.16 | 0.16 | 99 | 1017.0 |
| 20260904020347 | 77 | 178 | 0.0 | 0.0 | 0.00 | 0.16 | 0.16 | 99 | 1016.9 |
| 20260904015846 | 77 | 178 | 0.0 | 0.0 | 0.00 | 0.16 | 0.16 | 99 | 1016.9 |
| 20260904015342 | 77 | 180 | 0.0 | 0.0 | 0.00 | 0.16 | 0.16 | 99 | 1016.8 |
| 20260904014839 | 77 | 160 | 0.0 | 0.0 | 0.00 | 0.16 | 0.16 | 99 | 1016.6 |
| 20260904014329 | 77 | 160 | 0.0 | 0.0 | 0.00 | 0.16 | 0.16 | 99 | 1016.7 |
| 20260904013825 | 77 | 159 | 0.0 | 0.0 | 0.00 | 0.16 | 0.16 | 99 | 1016.4 |
| 20260904013321 | 77 | 159 | 1.0 | 1.0 | 0.00 | 0.16 | 0.16 | 99 | 1016.4 |
| 20260904012817 | 77 | 154 | 1.0 | 1.0 | 0.00 | 0.16 | 0.16 | 99 | 1016.4 |
| 20260904012311 | 77 | 129 | 1.0 | 2.0 | 0.00 | 0.16 | 0.16 | 99 | 1016.4 |
| 20260904011810 | 77 | 168 | 0.0 | 1.0 | 0.00 | 0.16 | 0.16 | 99 | 1016.5 |
| 20260904011305 | 77 | 164 | 1.0 | 1.0 | 0.00 | 0.16 | 0.16 | 99 | 1016.4 |
| 20260904010800 | 77 | 164 | 0.0 | 1.0 | 0.00 | 0.16 | 0.16 | 99 | 1016.3 |
| 20260904010256 | 77 | 156 | 1.0 | 1.0 | 0.00 | 0.16 | 0.16 | 99 | 1016.4 |
| 20260904005751 | 77 | 161 | 0.0 | 0.0 | 0.00 | 0.16 | 0.16 | 99 | 1016.3 |
| 20260904005247 | 77 | 165 | 0.0 | 0.0 | 0.00 | 0.16 | 0.16 | 99 | 1016.3 |
| 20260904004742 | 77 | 165 | 0.0 | 0.0 | 0.00 | 0.16 | 0.16 | 99 | 1016.5 |
| 20260904004238 | 77 | 169 | 0.0 | 0.0 | 0.00 | 0.16 | 0.16 | 99 | 1016.6 |
| 20260904003732 | 77 | 199 | 0.0 | 0.0 | 0.00 | 0.16 | 0.16 | 99 | 1016.5 |
| 20260904003229 | 77 | 199 | 0.0 | 0.0 | 0.00 | 0.16 | 0.16 | 99 | 1016.5 |
| 20260904002724 | 78 | 200 | 0.0 | 0.0 | 0.00 | 0.16 | 0.16 | 99 | 1016.6 |
| 20260904002220 | 78 | 170 | 0.0 | 0.0 | 0.00 | 0.16 | 0.16 | 99 | 1016.4 |
| 20260904001715 | 78 | 205 | 0.0 | 0.0 | 0.00 | 0.16 | 0.16 | 99 | 1016.4 |
| 20260904001214 | 78 | 193 | 0.0 | 0.0 | 0.00 | 0.16 | 0.16 | 99 | 1016.4 |
| 20260904000709 | 78 | 193 | 0.0 | 0.0 | 0.00 | 0.16 | 0.16 | 99 | 1016.5 |
| 20260904000204 | 78 | 191 | 0.0 | 0.0 | 0.00 | 0.16 | 0.16 | 98 | 1016.3 |
| 20260903235703 | 78 | 175 | 0.0 | 1.0 | 0.00 | 0.16 | 0.16 | 98 | 1016.4 |
| 20260903235200 | 78 | 174 | 0.0 | 0.0 | 0.00 | 0.16 | 0.16 | 99 | 1016.4 |
| 20260903234654 | 78 | 174 | 0.0 | 1.0 | 0.00 | 0.16 | 0.16 | 99 | 1016.5 |
| 20260903234151 | 79 | 174 | 0.0 | 1.0 | 0.00 | 0.16 | 0.16 | 99 | 1016.5 |
| 20260903233646 | 78 | 172 | 0.0 | 1.0 | 0.00 | 0.16 | 0.16 | 98 | 1016.3 |
| 20260903233143 | 78 | 174 | 0.0 | 0.0 | 0.00 | 0.16 | 0.16 | 99 | 1016.5 |
| 20260903232636 | 78 | 172 | 0.0 | 0.0 | 0.00 | 0.16 | 0.16 | 99 | 1016.5 |
| 20260903232132 | 79 | 174 | 0.0 | 0.0 | 0.00 | 0.16 | 0.16 | 99 | 1016.7 |
| 20260903231631 | 79 | 175 | 0.0 | 0.0 | 0.00 | 0.16 | 0.16 | 99 | 1016.5 |
| 20260903231131 | 78 | 170 | 0.0 | 1.0 | 0.00 | 0.16 | 0.16 | 99 | 1016.4 |
| 20260903230627 | 78 | 150 | 1.0 | 1.0 | 0.00 | 0.16 | 0.16 | 99 | 1016.5 |
| 20260903230126 | 79 | 154 | 0.0 | 0.0 | 0.00 | 0.16 | 0.16 | 99 | 1016.4 |
| 20260903225624 | 79 | 158 | 0.0 | 0.0 | 0.00 | 0.16 | 0.16 | 99 | 1016.8 |
| 20260903225120 | 79 | 158 | 1.0 | 1.0 | 0.00 | 0.16 | 0.16 | 99 | 1016.7 |
| 20260903224616 | 79 | 162 | 0.0 | 0.0 | 0.00 | 0.16 | 0.16 | 99 | 1016.8 |
| 20260903224112 | 79 | 162 | 0.0 | 0.0 | 0.00 | 0.16 | 0.16 | 99 | 1016.8 |
| 20260903223607 | 78 | 161 | 0.0 | 0.0 | 0.00 | 0.16 | 0.16 | 99 | 1017.0 |
| 20260903223105 | 78 | 173 | 0.0 | 1.0 | 0.05 | 0.16 | 0.16 | 99 | 1016.9 |
| 20260903222600 | 79 | 150 | 1.0 | 1.0 | 0.05 | 0.16 | 0.16 | 99 | 1017.1 |
| 20260903222059 | 78 | 160 | 0.0 | 0.0 | 0.07 | 0.15 | 0.15 | 99 | 1017.1 |
| 20260903221555 | 78 | 159 | 1.0 | 2.0 | 0.07 | 0.15 | 0.15 | 99 | 1017.3 |
| 20260903221052 | 78 | 173 | 1.0 | 1.0 | 0.00 | 0.14 | 0.14 | 99 | 1017.2 |
| 20260903220552 | 78 | 177 | 0.0 | 1.0 | 0.00 | 0.14 | 0.14 | 99 | 1017.5 |
| 20260903220051 | 78 | 162 | 0.0 | 1.0 | 0.00 | 0.14 | 0.14 | 99 | 1017.4 |
| 20260903215550 | 78 | 157 | 0.0 | 1.0 | 0.07 | 0.14 | 0.14 | 99 | 1017.4 |
| 20260903215049 | 78 | 160 | 0.0 | 1.0 | 0.07 | 0.14 | 0.14 | 99 | 1017.5 |
| 20260903214544 | 78 | 169 | 1.0 | 1.0 | 0.00 | 0.13 | 0.13 | 99 | 1017.3 |
| 20260903214039 | 78 | 170 | 0.0 | 0.0 | 0.00 | 0.13 | 0.13 | 99 | 1017.4 |
| 20260903213535 | 77 | 170 | 0.0 | 0.0 | 0.00 | 0.13 | 0.13 | 99 | 1017.3 |
| 20260903213030 | 78 | 170 | 0.0 | 0.0 | 0.00 | 0.13 | 0.13 | 99 | 1017.3 |
| 20260903212526 | 77 | 169 | 0.0 | 1.0 | 0.00 | 0.13 | 0.13 | 99 | 1017.5 |
| 20260903212021 | 77 | 169 | 0.0 | 0.0 | 0.00 | 0.13 | 0.13 | 99 | 1017.5 |
| 20260903211516 | 77 | 169 | 0.0 | 0.0 | 0.00 | 0.13 | 0.13 | 99 | 1017.6 |
| 20260903211013 | 77 | 168 | 0.0 | 1.0 | 0.00 | 0.13 | 0.13 | 99 | 1017.6 |
| 20260903210513 | 77 | 170 | 1.0 | 1.0 | 0.05 | 0.13 | 0.13 | 99 | 1018.0 |
| 20260903210008 | 77 | 180 | 0.0 | 0.0 | 0.12 | 0.13 | 0.13 | 98 | 1017.7 |
| 20260903205502 | 77 | 169 | 1.0 | 1.0 | 0.24 | 0.12 | 0.12 | 98 | 1018.1 |
| 20260903204956 | 78 | 127 | 2.0 | 2.0 | 0.40 | 0.11 | 0.11 | 97 | 1018.1 |
| 20260903204453 | 80 | 147 | 2.0 | 2.0 | 0.19 | 0.06 | 0.06 | 96 | 1018.1 |
| 20260903203948 | 81 | 177 | 0.0 | 0.0 | 0.12 | 0.04 | 0.04 | 95 | 1018.0 |
| 20260903203444 | 82 | 160 | 1.0 | 1.0 | 0.05 | 0.03 | 0.03 | 94 | 1018.2 |
| 20260903202942 | 82 | 162 | 0.0 | 0.0 | 0.07 | 0.02 | 0.02 | 91 | 1018.4 |
| 20260903202438 | 83 | 162 | 1.0 | 1.0 | 0.07 | 0.02 | 0.02 | 90 | 1018.5 |
| 20260903201933 | 82 | 160 | 0.0 | 0.0 | 0.00 | 0.01 | 0.01 | 88 | 1018.6 |
| 20260903201429 | 82 | 158 | 0.0 | 1.0 | 0.00 | 0.01 | 0.01 | 88 | 1018.6 |
| 20260903200927 | 83 | 128 | 1.0 | 2.0 | 0.00 | 0.01 | 0.01 | 88 | 1018.6 |
| 20260903200423 | 83 | 105 | 1.0 | 1.0 | 0.00 | 0.01 | 0.01 | 86 | 1018.4 |
| 20260903195917 | 84 | 81 | 1.0 | 3.0 | 0.00 | 0.01 | 0.01 | 85 | 1018.2 |
| 20260903195414 | 84 | 55 | 1.0 | 2.0 | 0.00 | 0.01 | 0.01 | 85 | 1018.3 |
| 20260903194909 | 84 | 142 | 2.0 | 2.0 | 0.00 | 0.01 | 0.01 | 85 | 1018.5 |
| 20260903194404 | 84 | 32 | 2.0 | 2.0 | 0.00 | 0.01 | 0.01 | 85 | 1018.4 |
| 20260903193859 | 84 | 91 | 2.0 | 5.0 | 0.00 | 0.01 | 0.01 | 85 | 1018.2 |